Time;durP1;ratioP1;P1;durP2;ratioP2;P2;SDS_P1;SDS_P2;PMS_P1;PMS_P2;Temp;Humidity;BMP_temperature;BMP_pressure;BME280_temperature;BME280_humidity;BME280_pressure;Samples;Min_cycle;Max_cycle;Signal;HPM_P1;HPM_P2
2023/12/08 07:01:22;;;;;;;0.63;0.63;;;7.00;99.90;9.60;100191.00;;;;5833290;22;10554091;-72
2023/12/08 07:05:09;;;;;;;0.40;0.40;;;7.00;99.90;9.70;100187.00;;;;6278094;22;20199;-72
2023/12/08 07:07:42;;;;;;;0.40;0.40;;;7.30;99.90;9.40;100182.00;;;;6277869;22;20498;-70
2023/12/08 07:10:09;;;;;;;1.63;1.53;;;7.10;99.90;9.30;100169.00;;;;6251371;22;20221;-72
2023/12/08 07:12:46;;;;;;;0.87;0.87;;;7.00;99.90;8.80;100181.00;;;;6251922;22;20177;-72
2023/12/08 07:15:52;;;;;;;0.73;0.73;;;7.00;99.90;8.90;100201.00;;;;6251330;22;20145;-73
2023/12/08 07:18:23;;;;;;;0.90;0.90;;;6.90;99.90;8.90;100200.00;;;;6226225;22;20153;-72
2023/12/08 07:20:55;;;;;;;2.07;1.90;;;6.90;99.90;9.90;100202.00;;;;6251014;22;20145;-73
2023/12/08 07:23:26;;;;;;;0.40;0.40;;;7.10;99.90;9.50;100205.00;;;;6225958;22;20202;-73
2023/12/08 07:26:01;;;;;;;0.40;0.40;;;7.20;99.90;9.60;100206.00;;;;6251400;22;20585;-72
2023/12/08 07:28:27;;;;;;;0.77;0.77;;;7.10;99.90;9.60;100194.00;;;;6248424;22;20227;-73
2023/12/08 07:30:59;;;;;;;1.30;1.27;;;7.20;99.90;10.00;100204.00;;;;6276718;22;20187;-73
2023/12/08 07:33:25;;;;;;;1.77;1.70;;;7.30;99.90;10.10;100225.00;;;;6276884;22;20581;-73
2023/12/08 07:35:54;;;;;;;0.40;0.40;;;7.40;99.90;10.20;100221.00;;;;6249861;22;20141;-72
2023/12/08 07:38:29;;;;;;;1.30;1.27;;;7.50;99.90;9.70;100187.00;;;;6277945;22;20145;-72
2023/12/08 07:41:00;;;;;;;1.63;1.53;;;7.50;99.90;9.80;100213.00;;;;6251196;22;20184;-73
2023/12/08 07:43:35;;;;;;;0.93;0.93;;;7.30;99.90;11.00;100216.00;;;;6250560;22;20173;-73
2023/12/08 07:46:09;;;;;;;1.00;1.00;;;7.70;99.90;10.00;100229.00;;;;6250519;22;20159;-72
2023/12/08 07:48:43;;;;;;;0.50;0.50;;;7.70;99.90;9.80;100222.00;;;;6224643;22;20570;-72
2023/12/08 07:51:18;;;;;;;2.50;2.40;;;7.60;99.90;10.90;100240.00;;;;6277002;22;20146;-72
2023/12/08 07:53:49;;;;;;;0.90;0.90;;;7.70;99.90;10.10;100210.00;;;;6277984;22;20187;-72
2023/12/08 07:56:23;;;;;;;0.57;0.57;;;7.80;99.90;9.90;100249.00;;;;6249742;22;20555;-72
2023/12/08 07:58:58;;;;;;;1.83;1.73;;;7.60;99.90;10.50;100250.00;;;;6225417;22;20483;-72
2023/12/08 08:01:24;;;;;;;1.13;1.13;;;7.70;99.90;10.00;100257.00;;;;6213960;23;20223;-72
2023/12/08 08:04:07;;;;;;;1.57;1.47;;;7.70;99.90;9.90;100257.00;;;;6219205;23;20185;-72
2023/12/08 08:06:40;;;;;;;2.57;1.50;;;7.60;99.90;9.60;100259.00;;;;6247036;23;20146;-73
2023/12/08 08:09:17;;;;;;;1.13;0.90;;;7.60;99.90;10.10;100271.00;;;;6194347;23;20190;-73
2023/12/08 08:11:51;;;;;;;0.40;0.40;;;7.60;99.90;9.80;100246.00;;;;6220248;23;20181;-73
2023/12/08 08:14:28;;;;;;;0.73;0.73;;;7.60;99.90;9.60;100237.00;;;;6195460;23;20158;-73
2023/12/08 08:16:54;;;;;;;0.40;0.40;;;7.50;99.90;9.50;100257.00;;;;6220272;23;20458;-73
2023/12/08 08:19:31;;;;;;;0.67;0.67;;;7.50;99.90;9.20;100278.00;;;;6244951;23;20138;-73
2023/12/08 08:22:11;;;;;;;0.57;0.57;;;7.40;99.90;8.90;100289.00;;;;6220869;23;20169;-73
2023/12/08 08:24:46;;;;;;;0.80;0.80;;;7.30;99.90;9.30;100275.00;;;;6194801;23;20542;-73
2023/12/08 08:27:21;;;;;;;1.70;1.60;;;7.30;99.90;9.50;100275.00;;;;6219847;23;20190;-72
2023/12/08 08:30:05;;;;;;;0.87;0.87;;;7.40;99.90;9.60;100289.00;;;;6246665;23;20163;-71
2023/12/08 08:32:31;;;;;;;2.10;0.93;;;7.50;99.90;9.50;100293.00;;;;6191196;23;20169;-73
2023/12/08 08:35:10;;;;;;;1.03;0.70;;;7.60;99.90;9.90;100288.00;;;;6245425;23;20148;-70
2023/12/08 08:37:39;;;;;;;0.30;0.30;;;7.70;99.90;10.10;100309.00;;;;6195083;23;20166;-70
2023/12/08 08:40:19;;;;;;;0.70;0.70;;;7.80;99.90;10.30;100306.00;;;;6220031;23;20142;-70
2023/12/08 08:42:54;;;;;;;0.30;0.30;;;7.80;99.90;11.10;100310.00;;;;6218603;23;20179;-71
2023/12/08 08:45:28;;;;;;;0.40;0.40;;;8.20;99.90;10.90;100309.00;;;;6246634;23;20154;-71
2023/12/08 08:48:03;;;;;;;1.33;1.27;;;8.20;99.90;10.90;100316.00;;;;6245560;23;20179;-71
2023/12/08 08:50:34;;;;;;;5.83;5.47;;;8.20;99.90;10.50;100288.00;;;;6220298;23;20158;-71
2023/12/08 08:53:11;;;;;;;1.60;1.50;;;8.10;99.90;10.00;100304.00;;;;6220199;23;20142;-72
2023/12/08 08:55:48;;;;;;;1.10;0.50;;;8.00;99.90;10.10;100318.00;;;;6219840;23;20140;-71
2023/12/08 08:58:22;;;;;;;0.40;0.40;;;7.90;99.90;10.10;100330.00;;;;6244880;23;20238;-72
2023/12/08 09:00:59;;;;;;;0.30;0.30;;;8.00;99.90;10.30;100322.00;;;;6222416;22;20158;-71
2023/12/08 09:03:36;;;;;;;0.70;0.70;;;8.00;99.90;10.60;100323.00;;;;6249367;22;20270;-71
2023/12/08 09:06:12;;;;;;;1.33;1.23;;;8.00;99.90;10.30;100322.00;;;;6225330;22;20162;-71
2023/12/08 09:08:38;;;;;;;1.07;0.97;;;7.90;99.90;9.90;100322.00;;;;6276307;22;20150;-71
2023/12/08 09:11:18;;;;;;;4.00;2.07;;;7.90;99.90;10.20;100344.00;;;;6249849;22;20205;-72
2023/12/08 09:13:44;;;;;;;5.10;4.70;;;7.90;99.90;10.00;100342.00;;;;6224878;22;20168;-72
2023/12/08 09:16:10;;;;;;;2.67;2.43;;;7.90;99.90;10.20;100356.00;;;;6248961;22;20240;-72
2023/12/08 09:18:46;;;;;;;0.53;0.50;;;7.90;99.90;10.50;100359.00;;;;6276403;22;20587;-72
2023/12/08 09:21:24;;;;;;;0.70;0.70;;;8.00;99.90;10.70;100320.00;;;;6250588;22;20147;-72
2023/12/08 09:23:58;;;;;;;0.30;0.30;;;8.20;99.90;10.10;100357.00;;;;6276052;22;20174;-70
2023/12/08 09:26:35;;;;;;;0.60;0.60;;;8.00;99.90;10.10;100354.00;;;;6249769;22;20533;-71
2023/12/08 09:29:12;;;;;;;1.57;1.47;;;7.90;99.90;10.40;100351.00;;;;6276633;22;20159;-71
2023/12/08 09:31:47;;;;;;;0.60;0.60;;;8.10;99.90;10.00;100317.00;;;;6276719;22;20167;-70
2023/12/08 09:34:23;;;;;;;0.77;0.77;;;8.00;99.90;9.80;100374.00;;;;6249823;22;20570;-70
2023/12/08 09:36:56;;;;;;;0.50;0.50;;;7.90;99.90;10.30;100380.00;;;;6276627;22;20169;-70
2023/12/08 09:39:31;;;;;;;3.47;3.27;;;8.00;99.90;10.10;100384.00;;;;6249344;22;20143;-70
2023/12/08 09:42:29;;;;;;;2.37;0.80;;;8.10;99.90;10.60;100386.00;;;;6249198;22;20256;-70
2023/12/08 09:45:09;;;;;;;1.27;1.17;;;8.20;99.90;10.30;100361.00;;;;6248102;22;20472;-70
2023/12/08 09:47:36;;;;;;;0.37;0.37;;;8.20;99.90;10.60;100387.00;;;;6276683;22;20139;-70
2023/12/08 09:50:14;;;;;;;1.00;0.97;;;8.20;99.90;11.00;100381.00;;;;6222419;22;20567;-70
2023/12/08 09:52:55;;;;;;;3.23;2.37;;;8.40;99.90;10.60;100354.00;;;;6224951;22;20161;-70
2023/12/08 09:55:24;;;;;;;2.57;1.37;;;8.40;99.90;10.20;100381.00;;;;6249261;22;20152;-70
2023/12/08 09:58:09;;;;;;;1.33;1.27;;;8.30;99.90;10.20;100377.00;;;;6249352;22;20147;-69
2023/12/08 10:00:49;;;;;;;1.60;1.13;;;8.30;99.90;10.50;100379.00;;;;6223754;22;20158;-71
2023/12/08 10:03:15;;;;;;;0.40;0.40;;;8.30;99.90;10.40;100375.00;;;;6223935;22;20191;-70
2023/12/08 10:05:56;;;;;;;0.70;0.70;;;8.30;99.90;10.40;100360.00;;;;6276031;22;20206;-69
2023/12/08 10:08:31;;;;;;;0.30;0.30;;;8.40;99.90;10.60;100404.00;;;;6249101;22;20156;-69
2023/12/08 10:10:57;;;;;;;2.20;2.00;;;8.40;99.90;11.10;100371.00;;;;6223590;22;20163;-68
2023/12/08 10:13:44;;;;;;;3.60;3.30;;;8.50;99.90;10.60;100394.00;;;;6249481;22;20149;-71
2023/12/08 10:16:13;;;;;;;0.30;0.30;;;8.60;99.90;11.00;100401.00;;;;6223982;22;20159;-71
2023/12/08 10:18:48;;;;;;;1.30;1.30;;;8.60;99.90;11.10;100396.00;;;;6248798;22;20151;-70
2023/12/08 10:33:36;;;;;;;0.83;0.77;;;8.00;99.90;10.00;100441.00;;;;5126975;27;20605;-70
2023/12/08 10:36:08;;;;;;;0.40;0.40;;;8.20;99.90;10.60;100433.00;;;;5067776;28;20195;-71
2023/12/08 10:38:40;;;;;;;2.90;2.70;;;8.30;99.90;10.80;100397.00;;;;5070842;28;20644;-70
2023/12/08 10:41:13;;;;;;;1.80;1.63;;;8.40;99.90;10.90;100403.00;;;;5085505;28;20277;-70
2023/12/08 10:43:45;;;;;;;1.37;1.30;;;8.50;99.90;11.20;100395.00;;;;5061383;28;20721;-71
2023/12/08 10:46:11;;;;;;;2.90;2.60;;;8.70;99.90;11.50;100388.00;;;;5079685;28;20266;-70
2023/12/08 10:48:52;;;;;;;1.00;1.00;;;8.80;99.90;11.10;100370.00;;;;5060711;28;20199;-70
2023/12/08 10:51:30;;;;;;;0.93;0.93;;;8.90;99.90;11.00;100378.00;;;;5067887;28;20631;-70
2023/12/08 10:54:05;;;;;;;2.00;1.90;;;8.80;99.90;10.80;100378.00;;;;5085564;28;20211;-70
2023/12/08 10:56:34;;;;;;;1.40;1.23;;;8.80;99.90;10.80;100378.00;;;;5083286;28;20186;-70
2023/12/08 10:59:07;;;;;;;7.23;6.27;;;8.70;99.90;11.40;100383.00;;;;5069434;28;20551;-70
2023/12/08 11:01:40;;;;;;;3.97;2.50;;;8.80;99.90;11.00;100374.00;;;;5074494;28;20303;-70
2023/12/08 11:04:19;;;;;;;0.80;0.80;;;8.80;99.90;11.10;100377.00;;;;5059980;28;20186;-70
2023/12/08 11:07:10;;;;;;;2.53;1.37;;;8.80;99.90;11.30;100386.00;;;;5068409;28;20537;-70
2023/12/08 11:09:40;;;;;;;1.33;1.33;;;8.90;99.90;11.40;100388.00;;;;5067803;28;20551;-70
2023/12/08 11:12:13;;;;;;;3.63;1.60;;;9.00;99.90;10.80;100393.00;;;;5072341;28;20207;-70
2023/12/08 11:14:58;;;;;;;2.67;2.50;;;8.90;99.90;10.70;100399.00;;;;5076389;28;20185;-70
2023/12/08 11:17:51;;;;;;;2.47;2.30;;;8.70;99.90;11.30;100367.00;;;;5071279;28;20234;-69
2023/12/08 11:20:26;;;;;;;0.50;0.50;;;8.90;99.90;11.20;100377.00;;;;5059764;28;20653;-70
2023/12/08 11:23:02;;;;;;;2.77;1.23;;;8.90;99.90;11.70;100351.00;;;;5084113;28;20263;-69
2023/12/08 11:25:42;;;;;;;8.70;1.80;;;9.10;99.90;11.40;100376.00;;;;5084702;28;20192;-70
2023/12/08 11:28:34;;;;;;;0.50;0.50;;;9.00;99.90;11.70;100368.00;;;;5061710;28;20198;-69
2023/12/08 11:31:30;;;;;;;0.40;0.40;;;9.30;99.90;12.20;100379.00;;;;5097880;28;20530;-70
2023/12/08 11:34:20;;;;;;;0.47;0.47;;;9.50;99.90;12.50;100369.00;;;;5100825;28;20187;-70
2023/12/08 11:36:58;;;;;;;0.73;0.73;;;9.70;99.90;11.90;100361.00;;;;5067238;28;20236;-71
2023/12/08 11:39:47;;;;;;;0.50;0.50;;;9.60;99.90;12.70;100387.00;;;;5050944;28;20185;-70
2023/12/08 11:42:27;;;;;;;1.97;1.87;;;9.70;99.90;11.00;100368.00;;;;5067126;28;20543;-70
2023/12/08 11:44:57;;;;;;;0.50;0.50;;;9.40;99.90;12.50;100367.00;;;;5038421;28;20178;-70
2023/12/08 11:47:27;;;;;;;0.87;0.87;;;9.60;99.90;12.50;100371.00;;;;5057254;28;20201;-70
2023/12/08 11:49:58;;;;;;;0.87;0.87;;;9.80;99.90;12.60;100377.00;;;;5050121;28;20713;-70
2023/12/08 11:52:32;;;;;;;1.17;1.17;;;9.80;99.90;12.20;100377.00;;;;5038335;28;20276;-70
2023/12/08 11:55:20;;;;;;;0.57;0.57;;;9.70;99.90;12.50;100381.00;;;;5053835;28;20667;-70
2023/12/08 11:58:09;;;;;;;1.57;1.47;;;10.00;99.90;12.40;100360.00;;;;5054970;28;20189;-75
2023/12/08 12:00:43;;;;;;;0.60;0.60;;;9.80;99.90;12.50;100390.00;;;;5034709;28;20178;-71
2023/12/08 12:03:16;;;;;;;1.80;1.53;;;9.90;99.90;12.10;100384.00;;;;5050313;28;20187;-71
2023/12/08 12:05:53;;;;;;;0.70;0.70;;;9.70;99.90;12.80;100378.00;;;;5063433;28;20215;-71
2023/12/08 12:08:24;;;;;;;0.50;0.50;;;9.90;99.90;13.20;100387.00;;;;5053704;28;20185;-71
2023/12/08 12:11:14;;;;;;;1.47;1.47;;;10.20;99.90;12.90;100368.00;;;;5069648;28;20193;-71
2023/12/08 12:13:46;;;;;;;0.50;0.50;;;10.40;99.90;12.50;100375.00;;;;5059719;28;20194;-71
2023/12/08 12:16:21;;;;;;;0.60;0.60;;;10.00;99.90;11.10;100357.00;;;;5036787;28;20182;-71
2023/12/08 12:19:04;;;;;;;3.17;2.97;;;9.60;99.90;12.90;100389.00;;;;5057842;28;20689;-71
2023/12/08 12:21:42;;;;;;;0.80;0.80;;;9.90;99.90;11.40;100385.00;;;;5037388;28;20194;-71
2023/12/08 12:24:31;;;;;;;0.40;0.40;;;9.60;99.90;12.60;100404.00;;;;5055237;28;20652;-71
2023/12/08 12:27:00;;;;;;;0.70;0.70;;;9.80;99.90;12.30;100387.00;;;;5070284;28;20198;-71
2023/12/08 12:29:36;;;;;;;8.47;3.77;;;9.80;99.90;11.80;100390.00;;;;5058439;28;20182;-71
2023/12/08 12:32:21;;;;;;;1.73;1.63;;;9.80;99.90;13.00;100404.00;;;;5053849;28;20237;-71
2023/12/08 12:34:53;;;;;;;0.60;0.60;;;10.00;99.90;12.70;100402.00;;;;5053544;28;20878;-71
2023/12/08 12:37:28;;;;;;;0.50;0.50;;;10.10;99.90;11.60;100393.00;;;;5063207;28;20185;-71
2023/12/08 12:40:07;;;;;;;0.40;0.40;;;9.80;99.90;12.50;100391.00;;;;5058420;28;20186;-71
2023/12/08 12:42:56;;;;;;;1.17;1.07;;;10.00;99.90;12.50;100396.00;;;;5068109;28;20975;-71
2023/12/08 12:46:10;;;;;;;1.03;1.03;;;10.20;99.90;13.00;100403.00;;;;5036820;28;20186;-71
2023/12/08 12:48:55;;;;;;;1.53;1.53;;;10.20;99.90;13.10;100395.00;;;;5049802;28;20206;-71
2023/12/08 12:51:38;;;;;;;0.60;0.60;;;10.40;99.90;12.80;100406.00;;;;5049036;28;20213;-71
2023/12/08 12:54:12;;;;;;;0.50;0.50;;;10.40;99.90;13.00;100404.00;;;;5070008;28;20255;-71
2023/12/08 12:57:07;;;;;;;0.60;0.60;;;10.40;99.90;13.40;100395.00;;;;5049563;28;20550;-72
2023/12/08 12:59:55;;;;;;;0.60;0.60;;;10.40;99.90;13.80;100395.00;;;;5048113;28;20193;-71
2023/12/08 13:02:33;;;;;;;6.83;4.10;;;10.60;99.90;13.00;100398.00;;;;5056565;28;20575;-71
2023/12/08 13:05:10;;;;;;;0.93;0.93;;;10.60;99.90;12.20;100402.00;;;;5069642;28;20178;-71
2023/12/08 13:07:59;;;;;;;1.00;1.00;;;10.30;99.90;13.30;100408.00;;;;5069014;28;20186;-71
2023/12/08 13:10:38;;;;;;;1.07;1.00;;;10.40;99.90;13.10;100413.00;;;;5069681;28;20186;-71
2023/12/08 13:13:12;;;;;;;1.50;1.40;;;10.60;99.90;12.00;100422.00;;;;5052258;28;20226;-71
2023/12/08 13:15:50;;;;;;;0.60;0.60;;;10.30;99.90;13.70;100422.00;;;;5052460;28;20197;-71
2023/12/08 13:18:25;;;;;;;1.23;1.07;;;10.60;99.90;12.20;100423.00;;;;5052621;28;20198;-71
2023/12/08 13:21:02;;;;;;;0.60;0.60;;;10.40;99.90;11.80;100405.00;;;;5056926;28;20193;-71
2023/12/08 13:23:36;;;;;;;0.87;0.87;;;10.10;99.90;12.00;100433.00;;;;5052672;28;20315;-71
2023/12/08 13:26:04;;;;;;;1.17;1.17;;;10.00;99.90;12.50;100431.00;;;;5051328;28;20419;-71
2023/12/08 13:28:31;;;;;;;4.40;4.03;;;10.20;99.90;13.20;100433.00;;;;5053833;28;20194;-71
2023/12/08 13:30:58;;;;;;;2.80;2.70;;;10.40;99.90;13.50;100443.00;;;;5068318;28;20179;-72
2023/12/08 13:33:29;;;;;;;0.50;0.50;;;10.70;99.90;12.80;100437.00;;;;5066444;28;20222;-71
2023/12/08 13:35:56;;;;;;;0.60;0.60;;;10.40;99.90;13.30;100432.00;;;;5059066;28;20649;-71
2023/12/08 13:38:23;;;;;;;0.50;0.50;;;10.60;99.90;13.20;100426.00;;;;5068814;28;20207;-72
2023/12/08 13:40:52;;;;;;;0.70;0.70;;;10.70;99.90;13.60;100426.00;;;;5035865;28;20279;-71
2023/12/08 13:43:25;;;;;;;0.60;0.60;;;10.70;99.90;13.80;100436.00;;;;5052205;28;20736;-71
2023/12/08 13:45:54;;;;;;;2.07;1.87;;;11.00;99.90;13.70;100406.00;;;;5053349;28;20301;-71
2023/12/08 13:48:29;;;;;;;3.27;1.33;;;11.00;99.90;13.30;100434.00;;;;5051768;28;20277;-71
2023/12/08 13:51:03;;;;;;;0.87;0.87;;;10.90;99.90;13.20;100447.00;;;;5053571;28;20186;-72
2023/12/08 13:53:35;;;;;;;0.70;0.70;;;10.80;99.90;13.40;100450.00;;;;5052044;28;20285;-71
2023/12/08 13:56:11;;;;;;;0.70;0.70;;;10.80;99.90;13.60;100455.00;;;;5049920;28;20194;-72
2023/12/08 13:58:37;;;;;;;1.20;1.13;;;10.80;99.90;12.70;100462.00;;;;5053041;28;20192;-71
2023/12/08 14:01:10;;;;;;;1.33;0.93;;;10.80;99.90;12.60;100452.00;;;;5053768;28;20178;-71
2023/12/08 14:03:39;;;;;;;0.70;0.70;;;10.60;99.90;13.60;100466.00;;;;5056322;28;20584;-72
2023/12/08 14:06:10;;;;;;;0.70;0.70;;;10.80;99.90;13.70;100467.00;;;;5051357;28;20185;-72
2023/12/08 14:08:47;;;;;;;1.10;1.10;;;11.10;99.90;13.90;100452.00;;;;5042052;28;20553;-72
2023/12/08 14:11:30;;;;;;;2.20;2.17;;;11.10;99.90;13.70;100466.00;;;;5062363;28;20183;-72
2023/12/08 14:13:56;;;;;;;0.97;0.97;;;11.10;99.90;13.50;100465.00;;;;5068082;28;20249;-72
2023/12/08 14:16:27;;;;;;;10.47;6.63;;;11.00;99.90;13.70;100463.00;;;;5050777;28;20178;-71
2023/12/08 14:18:59;;;;;;;1.77;1.63;;;11.00;99.90;13.20;100448.00;;;;5059609;28;20199;-72
2023/12/08 14:21:30;;;;;;;0.50;0.50;;;11.00;99.90;12.30;100454.00;;;;5048647;28;20241;-72
2023/12/08 14:23:56;;;;;;;5.70;3.33;;;10.50;99.90;13.30;100462.00;;;;5052977;28;20214;-72
2023/12/08 14:26:31;;;;;;;0.60;0.60;;;10.70;99.90;13.80;100460.00;;;;5054583;28;20180;-71
2023/12/08 14:29:05;;;;;;;1.03;1.03;;;11.00;99.90;13.70;100442.00;;;;5054531;28;20185;-72
2023/12/08 14:31:39;;;;;;;1.67;1.57;;;11.00;99.90;13.70;100472.00;;;;5052800;28;20346;-71
2023/12/08 14:34:16;;;;;;;0.70;0.70;;;11.10;99.90;14.40;100469.00;;;;5047023;28;20183;-71
2023/12/08 14:36:47;;;;;;;0.70;0.70;;;11.30;99.90;13.60;100468.00;;;;5039964;28;20184;-71
2023/12/08 14:39:24;;;;;;;1.93;1.87;;;11.00;99.90;14.60;100460.00;;;;5034901;28;20193;-72
2023/12/08 14:41:55;;;;;;;1.90;1.80;;;11.30;99.90;14.10;100457.00;;;;5052723;28;20234;-71
2023/12/08 14:44:28;;;;;;;0.60;0.60;;;11.30;99.90;14.00;100475.00;;;;5068184;28;20190;-72
2023/12/08 14:47:03;;;;;;;1.53;1.53;;;11.20;99.90;13.80;100476.00;;;;5060990;28;20182;-71
2023/12/08 14:49:35;;;;;;;1.47;1.37;;;11.20;99.90;13.50;100480.00;;;;5052396;28;20195;-71
2023/12/08 14:52:12;;;;;;;1.00;1.00;;;11.10;99.90;13.00;100480.00;;;;5055541;28;20599;-71
2023/12/08 14:54:46;;;;;;;0.93;0.93;;;11.00;99.90;12.70;100484.00;;;;5034688;28;20189;-71
2023/12/08 14:57:17;;;;;;;0.90;0.90;;;10.60;99.90;12.80;100495.00;;;;5065400;28;20691;-71
2023/12/08 14:59:43;;;;;;;0.70;0.70;;;10.60;99.90;12.20;100499.00;;;;5048146;28;20275;-71
2023/12/08 15:02:14;;;;;;;2.97;1.80;;;10.40;99.90;12.90;100505.00;;;;5045573;28;20284;-71
2023/12/08 15:04:53;;;;;;;0.60;0.60;;;10.50;99.90;12.50;100506.00;;;;5061673;28;20184;-71
2023/12/08 15:07:24;;;;;;;0.90;0.80;;;10.40;99.90;12.90;100511.00;;;;5054494;28;20190;-71
2023/12/08 15:09:55;;;;;;;0.83;0.83;;;10.50;99.90;13.70;100531.00;;;;5052270;28;20650;-71
2023/12/08 15:12:30;;;;;;;0.53;0.53;;;10.70;99.90;13.20;100525.00;;;;5056818;28;20558;-71
2023/12/08 15:15:04;;;;;;;1.57;1.57;;;10.80;99.90;13.10;100535.00;;;;5052710;28;20269;-71
2023/12/08 15:17:43;;;;;;;0.70;0.70;;;10.60;99.90;14.30;100536.00;;;;5063106;28;20190;-71
2023/12/08 15:20:12;;;;;;;1.90;1.00;;;11.00;99.90;13.10;100527.00;;;;5066317;28;20192;-71
2023/12/08 15:22:44;;;;;;;1.07;1.07;;;10.70;99.90;13.20;100513.00;;;;5071311;28;20191;-71
2023/12/08 15:25:10;;;;;;;1.63;1.53;;;10.70;99.90;13.50;100537.00;;;;5059612;28;20198;-71
2023/12/08 15:27:41;;;;;;;1.70;1.60;;;10.80;99.90;13.00;100537.00;;;;5071474;28;20185;-71
2023/12/08 15:30:11;;;;;;;1.00;1.00;;;10.60;99.90;12.70;100537.00;;;;5056334;28;20273;-71
2023/12/08 15:32:45;;;;;;;1.20;1.20;;;10.50;99.90;12.60;100529.00;;;;5038140;28;20301;-71
2023/12/08 15:35:12;;;;;;;0.50;0.50;;;10.30;99.90;13.30;100542.00;;;;5059935;28;20212;-71
2023/12/08 15:37:38;;;;;;;0.77;0.77;;;10.50;99.90;12.60;100545.00;;;;5054711;28;20604;-71
2023/12/08 15:40:10;;;;;;;0.60;0.60;;;10.40;99.90;12.70;100537.00;;;;5067786;28;20191;-71
2023/12/08 15:42:44;;;;;;;1.17;1.10;;;10.40;99.90;12.40;100538.00;;;;5055624;28;20190;-71
2023/12/08 15:45:10;;;;;;;1.07;1.07;;;10.20;99.90;12.30;100548.00;;;;5047368;28;20198;-71
2023/12/08 15:47:42;;;;;;;1.37;1.37;;;10.10;99.90;12.10;100513.00;;;;5055303;28;20197;-71
2023/12/08 15:50:14;;;;;;;0.50;0.50;;;10.00;99.90;11.90;100548.00;;;;5055065;28;20728;-70
2023/12/08 15:52:48;;;;;;;0.77;0.77;;;9.90;99.90;11.90;100541.00;;;;5054503;28;20228;-76
2023/12/08 15:55:15;;;;;;;1.10;1.10;;;9.80;99.90;11.50;100538.00;;;;5048994;28;20672;-70
2023/12/08 15:57:52;;;;;;;1.30;1.30;;;9.70;99.90;12.10;100509.00;;;;5052705;28;20184;-70
2023/12/08 16:00:26;;;;;;;2.40;2.30;;;9.70;99.90;11.90;100551.00;;;;5059502;28;20650;-70
2023/12/08 16:03:03;;;;;;;1.00;1.00;;;9.70;99.90;11.80;100555.00;;;;5054992;28;20196;-70
2023/12/08 16:05:37;;;;;;;1.43;1.23;;;9.60;99.90;11.90;100550.00;;;;5060567;28;20287;-71
2023/12/08 16:08:09;;;;;;;1.20;0.93;;;9.60;99.90;11.90;100547.00;;;;5049316;28;20192;-70
2023/12/08 16:10:44;;;;;;;0.40;0.40;;;9.60;99.90;11.80;100530.00;;;;5070551;28;20186;-70
2023/12/08 16:13:17;;;;;;;0.60;0.60;;;9.60;99.90;11.80;100515.00;;;;5054774;28;20201;-71
2023/12/08 16:15:49;;;;;;;0.40;0.40;;;9.50;99.90;12.40;100532.00;;;;5070254;28;20310;-70
2023/12/08 16:18:25;;;;;;;0.50;0.50;;;9.70;99.90;11.80;100562.00;;;;5054634;28;20202;-70
2023/12/08 16:21:01;;;;;;;2.53;1.43;;;9.50;99.90;12.20;100566.00;;;;5053414;28;20185;-70
2023/12/08 16:23:33;;;;;;;0.73;0.73;;;9.60;99.90;12.20;100559.00;;;;5042217;28;20196;-71
2023/12/08 16:26:02;;;;;;;1.47;1.37;;;9.70;99.90;12.10;100566.00;;;;5054490;28;20182;-71
2023/12/08 16:28:33;;;;;;;0.50;0.50;;;9.60;99.90;12.20;100532.00;;;;5054284;28;20650;-71
2023/12/08 16:31:04;;;;;;;0.63;0.63;;;9.60;99.90;11.50;100573.00;;;;5058373;28;20190;-70
2023/12/08 16:33:41;;;;;;;3.83;3.53;;;9.50;99.90;11.90;100574.00;;;;5053116;28;20215;-70
2023/12/08 16:36:12;;;;;;;0.83;0.80;;;9.40;99.90;12.30;100564.00;;;;5057203;28;20185;-71
2023/12/08 16:38:38;;;;;;;0.50;0.50;;;9.50;99.90;11.90;100567.00;;;;5036379;28;20288;-71
2023/12/08 16:41:13;;;;;;;0.50;0.50;;;9.50;99.90;11.60;100568.00;;;;5054111;28;20182;-71
2023/12/08 16:43:39;;;;;;;0.70;0.70;;;9.30;99.90;11.80;100575.00;;;;5036206;28;20187;-71
2023/12/08 16:46:10;;;;;;;4.60;0.97;;;9.30;99.90;11.60;100567.00;;;;5053099;28;20236;-71
2023/12/08 16:48:44;;;;;;;0.77;0.77;;;9.30;99.90;11.40;100530.00;;;;5064967;28;20274;-70
2023/12/08 16:51:10;;;;;;;0.50;0.50;;;9.20;99.90;11.50;100566.00;;;;5054345;28;20190;-70
2023/12/08 16:53:42;;;;;;;0.40;0.40;;;9.20;99.90;11.50;100574.00;;;;5053809;28;20196;-71
2023/12/08 16:56:09;;;;;;;0.50;0.50;;;9.10;99.90;11.30;100577.00;;;;5069037;28;20731;-71
2023/12/08 16:58:43;;;;;;;1.30;1.30;;;9.10;99.90;11.50;100568.00;;;;5042872;28;20180;-71
2023/12/08 17:01:14;;;;;;;0.80;0.80;;;9.10;99.90;11.30;100555.00;;;;5052860;28;20266;-70
2023/12/08 17:03:40;;;;;;;2.57;1.43;;;9.10;99.90;11.10;100576.00;;;;5062908;28;20188;-70
2023/12/08 17:06:07;;;;;;;1.10;1.10;;;9.00;99.90;11.20;100570.00;;;;5053843;28;20181;-70
2023/12/08 17:08:33;;;;;;;0.73;0.73;;;9.00;99.90;11.20;100577.00;;;;5051845;28;20216;-70
2023/12/08 17:11:05;;;;;;;0.50;0.50;;;9.00;99.90;11.30;100576.00;;;;5052345;28;20643;-70
2023/12/08 17:13:31;;;;;;;1.50;1.50;;;9.00;99.90;11.50;100573.00;;;;5053821;28;20253;-70
2023/12/08 17:15:56;;;;;;;2.37;1.27;;;9.00;99.90;11.80;100559.00;;;;5053686;28;20210;-70
2023/12/08 17:18:28;;;;;;;8.40;1.37;;;9.20;99.90;11.10;100563.00;;;;5051754;28;20193;-70
2023/12/08 17:20:54;;;;;;;1.37;1.37;;;9.10;99.90;11.10;100564.00;;;;5059401;28;20707;-70
2023/12/08 17:23:28;;;;;;;7.83;1.80;;;9.00;99.90;11.20;100539.00;;;;5052506;28;20203;-70
2023/12/08 17:26:02;;;;;;;1.00;1.00;;;9.00;99.90;11.50;100577.00;;;;5052398;28;20542;-70
2023/12/08 17:28:39;;;;;;;0.90;0.90;;;9.00;99.90;11.40;100569.00;;;;5035241;28;20205;-70
2023/12/08 17:31:15;;;;;;;0.80;0.80;;;9.00;99.90;11.20;100581.00;;;;5050135;28;20215;-70
2023/12/08 17:33:47;;;;;;;0.80;0.80;;;9.00;99.90;11.00;100581.00;;;;5065732;28;20219;-70
2023/12/08 17:36:23;;;;;;;0.50;0.50;;;8.90;99.90;11.30;100586.00;;;;5053745;28;20174;-70
2023/12/08 17:39:02;;;;;;;0.50;0.50;;;9.00;99.90;11.20;100583.00;;;;5051832;28;20207;-71
2023/12/08 17:41:41;;;;;;;0.97;0.87;;;9.00;99.90;11.10;100593.00;;;;5050601;28;20185;-70
2023/12/08 17:44:15;;;;;;;1.03;0.80;;;9.00;99.90;11.20;100598.00;;;;5052600;28;20194;-70
2023/12/08 17:46:49;;;;;;;1.37;1.33;;;8.90;99.90;11.00;100600.00;;;;5049976;28;20532;-72
2023/12/08 17:49:21;;;;;;;2.67;2.17;;;9.00;99.90;11.10;100600.00;;;;5051271;28;20208;-72
2023/12/08 17:51:50;;;;;;;1.37;1.37;;;8.90;99.90;11.30;100605.00;;;;5051212;28;20220;-71
2023/12/08 17:54:21;;;;;;;0.40;0.40;;;9.00;99.90;11.50;100603.00;;;;5051619;28;20681;-72
2023/12/08 17:56:53;;;;;;;0.50;0.50;;;9.00;99.90;11.00;100574.00;;;;5035420;28;20200;-71
2023/12/08 17:59:33;;;;;;;1.07;1.00;;;8.90;99.90;10.40;100582.00;;;;5061092;28;20193;-72
2023/12/08 18:03:02;;;;;;;1.80;1.47;;;8.80;99.90;10.60;100604.00;;;;5052011;28;20183;-71
2023/12/08 18:05:40;;;;;;;0.80;0.80;;;8.70;99.90;10.80;100610.00;;;;5051342;28;20285;-71
2023/12/08 18:08:30;;;;;;;1.50;1.23;;;8.70;99.90;10.90;100622.00;;;;5068410;28;20185;-72
2023/12/08 18:11:22;;;;;;;1.10;1.07;;;8.70;99.90;11.10;100618.00;;;;5044179;28;20199;-72
2023/12/08 18:14:14;;;;;;;1.00;0.93;;;8.80;99.90;11.40;100587.00;;;;5051924;28;20183;-72
2023/12/08 18:16:58;;;;;;;0.80;0.80;;;8.90;99.90;10.90;100623.00;;;;5072088;28;20189;-72
2023/12/08 18:19:50;;;;;;;0.70;0.70;;;8.90;99.90;10.90;100625.00;;;;5068206;28;20204;-72
2023/12/08 18:22:39;;;;;;;3.20;2.73;;;8.80;99.90;11.20;100633.00;;;;5053297;28;20187;-72
2023/12/08 18:25:26;;;;;;;1.27;1.27;;;8.90;99.90;11.20;100625.00;;;;5042012;28;20223;-72
2023/12/08 18:28:11;;;;;;;7.63;1.80;;;8.90;99.90;10.30;100625.00;;;;5035325;28;20199;-71
2023/12/08 18:31:01;;;;;;;0.77;0.77;;;8.70;99.90;11.10;100626.00;;;;5051362;28;20203;-72
2023/12/08 18:34:10;;;;;;;1.60;1.33;;;8.80;99.90;10.90;100628.00;;;;5034892;28;20278;-71
2023/12/08 18:37:21;;;;;;;1.00;1.00;;;8.80;99.90;11.30;100625.00;;;;5048666;28;20650;-72
2023/12/08 18:40:03;;;;;;;0.40;0.40;;;8.90;99.90;11.40;100594.00;;;;5049331;28;20223;-71
2023/12/08 18:42:51;;;;;;;0.40;0.40;;;9.00;99.90;11.30;100633.00;;;;5051292;28;20197;-71